MET'MAP v2.0
soon released !

Expected late october,
this new version will be
more efficient, smarter,
and hosted on a brand new
server x3 powerfull...
...and still free !


Not compatible ?
Try the mobile version !

LOG IN : | Subscribe | Disclaimer | Who is Orbifly ? |
ICAO code :
Legend : VFR Marginal VFR IFR Intensive IFR Very Intensive IFR
Visi :
Ceiling :
>= 8 km
>= 3000ft
5 to 8 km
1000 to 3000 ft
1500m to 5 km
500 to 1000 ft
800 to 1500m
200 to 500 ft
< 800m
< 200 ft

METAR - LPMR Monte Real Air Base - 27 May 2020 11:42 UTC - Data Source NOAA   


- Airport Elevation : 187 ft
- No reported NOTAMs.


LPMR - Monte Real Air Base

Latest METAR recorded : 2015/04/24 12:00 LPMR 241200Z 21008KT 9999 FEW009 BKN012 16/14 Q1016
TAF TAF LPMR
Valid from the 27 at 06:00 until the 28 at 06:00 UTC


270518Z 2706/2806 11005KT CAVOK
BECMG 2712/2714 33010KT
PROB30
TEMPO 2715/2718 7000 SHRA SCT035TCU SCT040
BECMG 2722/2801 06005KT

Source NOAA


MET'MAP, your aeronautical weather chart ! - Copyright ORBIFLY December 2007

Programming & Development : Alexandra Zaïnal
Co-Developer : Marc-Olivier Méhu
Technical & hardware support : Manuel Goepfert
Concept & Financing : Baudouin d'Aumeries